createdAt,value
2023-02-14T04:05:28.997Z,49.72
2023-02-14T04:07:57.840Z,50.17
2023-02-14T04:10:24.898Z,59.47
2023-02-14T04:12:51.653Z,51.67
2023-02-14T04:15:18.368Z,42.78
2023-02-14T04:18:03.690Z,51.08
2023-02-14T04:20:30.370Z,46.95
2023-02-14T04:22:57.521Z,47.22
2023-02-14T04:25:24.116Z,42.88
2023-02-14T04:27:50.647Z,45.60
2023-02-14T04:30:18.116Z,44.17
2023-02-14T04:32:44.819Z,42.72
2023-02-14T04:35:11.541Z,43.78
2023-02-14T04:37:38.139Z,42.35
2023-02-14T04:40:05.288Z,41.05
2023-02-14T04:42:31.763Z,39.67
2023-02-14T04:44:58.828Z,40.67
2023-02-14T04:47:25.291Z,42.05
2023-02-14T04:49:51.929Z,41.55
2023-02-14T04:52:18.458Z,46.13
2023-02-14T04:54:44.904Z,42.22
2023-02-14T04:57:11.399Z,42.33
2023-02-14T04:59:37.851Z,43.03
2023-02-14T05:02:04.424Z,41.35
2023-02-14T05:04:30.969Z,42.10
2023-02-14T05:06:57.528Z,40.95
2023-02-14T05:09:24.149Z,42.13
2023-02-14T05:11:51.543Z,44.20
2023-02-14T05:14:18.100Z,40.00
2023-02-14T05:16:44.643Z,39.95
2023-02-14T05:19:11.224Z,39.85
2023-02-14T05:21:38.579Z,40.78
2023-02-14T05:24:05.179Z,42.72
2023-02-14T05:26:31.697Z,44.72
2023-02-14T05:28:59.098Z,45.80
2023-02-14T05:31:25.751Z,44.50
2023-02-14T05:33:52.288Z,41.47
2023-02-14T05:36:18.789Z,45.00
2023-02-14T05:38:45.298Z,46.35
2023-02-14T05:41:11.864Z,44.60
2023-02-14T05:43:38.709Z,45.88
2023-02-14T05:46:05.206Z,43.15
2023-02-14T05:48:31.844Z,44.47
2023-02-14T05:51:03.551Z,42.97
2023-02-14T05:53:30.603Z,40.92
2023-02-14T05:55:57.138Z,38.10
2023-02-14T05:58:23.721Z,40.33
2023-02-14T06:00:50.248Z,39.70
2023-02-14T06:03:16.715Z,42.88
2023-02-14T06:05:43.287Z,43.78
2023-02-14T06:08:09.761Z,39.60
2023-02-14T06:10:36.255Z,41.30
2023-02-14T06:13:02.920Z,43.22
2023-02-14T06:15:29.418Z,39.58
2023-02-14T06:17:57.293Z,40.95
2023-02-14T06:20:24.534Z,41.00
2023-02-14T06:22:51.525Z,44.72
2023-02-14T06:25:18.080Z,43.22
2023-02-14T06:27:44.593Z,42.50
2023-02-14T06:30:11.707Z,40.50
2023-02-14T06:32:38.245Z,41.15
2023-02-14T06:35:05.777Z,41.55
2023-02-14T06:37:32.834Z,42.38
2023-02-14T06:39:59.379Z,44.03
2023-02-14T06:42:25.888Z,44.40
2023-02-14T06:44:52.373Z,43.10
2023-02-14T06:47:19.102Z,43.63
2023-02-14T06:49:45.593Z,43.22
2023-02-14T06:52:12.101Z,44.58
2023-02-14T06:54:38.576Z,43.78
2023-02-14T06:57:05.051Z,46.47
2023-02-14T06:59:31.555Z,43.40
2023-02-14T07:01:58.154Z,47.67
2023-02-14T07:04:24.608Z,45.33
2023-02-14T07:06:51.166Z,41.35
2023-02-14T07:09:18.268Z,43.45
2023-02-14T07:11:45.561Z,44.28
2023-02-14T07:14:13.639Z,44.78
2023-02-14T07:16:40.080Z,44.47
2023-02-14T07:19:06.622Z,45.22
2023-02-14T07:21:33.080Z,46.67
2023-02-14T07:23:59.546Z,43.28
2023-02-14T07:26:26.044Z,43.72
2023-02-14T07:28:55.320Z,45.92
2023-02-14T07:31:23.472Z,43.92
2023-02-14T07:33:53.248Z,41.72
2023-02-14T07:36:19.889Z,46.60
2023-02-14T07:38:46.368Z,41.63
2023-02-14T07:41:12.826Z,42.15
2023-02-14T07:43:39.770Z,42.38
2023-02-14T07:46:06.744Z,39.47
2023-02-14T07:48:34.466Z,44.95
2023-02-14T07:51:01.707Z,44.80
2023-02-14T07:53:28.469Z,46.00
2023-02-14T07:55:55.008Z,44.60
2023-02-14T07:58:21.785Z,43.72
2023-02-14T08:00:48.314Z,44.70
2023-02-14T08:03:15.345Z,44.40
2023-02-14T08:05:42.172Z,44.75
2023-02-14T08:08:09.150Z,42.35
2023-02-14T08:10:35.716Z,44.63
2023-02-14T08:13:03.592Z,41.42
2023-02-14T08:15:53.449Z,39.47
2023-02-14T08:18:22.902Z,43.55
2023-02-14T08:20:52.213Z,44.67
2023-02-14T08:23:19.452Z,42.33
2023-02-14T08:25:48.008Z,44.95
2023-02-14T08:28:15.005Z,46.97
2023-02-14T08:30:42.572Z,42.20
2023-02-14T08:33:09.146Z,44.88
2023-02-14T08:35:36.354Z,44.42
2023-02-14T08:38:03.509Z,45.05
2023-02-14T08:40:30.243Z,47.28
2023-02-14T08:42:56.876Z,40.78
2023-02-14T08:45:23.406Z,42.28
2023-02-14T08:47:49.940Z,40.55
2023-02-14T08:50:17.501Z,43.08
2023-02-14T08:52:44.486Z,46.58
2023-02-14T08:55:13.010Z,43.67
2023-02-14T08:57:40.294Z,45.85
2023-02-14T09:00:08.198Z,42.65
2023-02-14T09:02:34.766Z,40.28
2023-02-14T09:05:01.709Z,43.13
2023-02-14T09:07:28.527Z,41.17
2023-02-14T09:09:55.115Z,43.28
2023-02-14T09:12:21.908Z,38.17
2023-02-14T09:14:48.473Z,41.08
2023-02-14T09:17:15.707Z,39.67
2023-02-14T09:19:42.327Z,41.15
2023-02-14T09:22:10.484Z,37.60
2023-02-14T09:24:38.882Z,41.17
2023-02-14T09:27:05.822Z,38.25
2023-02-14T09:29:32.963Z,43.50
2023-02-14T09:32:01.157Z,41.08
2023-02-14T09:34:46.792Z,36.63
2023-02-14T09:37:32.408Z,37.25
2023-02-14T09:39:58.927Z,37.88
2023-02-14T09:42:34.292Z,38.53
2023-02-14T09:45:04.977Z,39.25
2023-02-14T09:47:40.549Z,37.25
2023-02-14T09:50:34.357Z,40.92
2023-02-14T09:53:04.387Z,37.30
2023-02-14T09:55:38.653Z,40.80
2023-02-14T09:58:10.735Z,38.65
2023-02-14T10:00:51.531Z,40.63
2023-02-14T10:03:36.943Z,37.67
2023-02-14T10:06:24.648Z,39.13
2023-02-14T10:09:16.474Z,39.92
2023-02-14T10:11:47.846Z,39.53
2023-02-14T10:14:21.308Z,36.85
2023-02-14T10:16:49.832Z,38.15
2023-02-14T10:19:25.647Z,38.05
2023-02-14T10:22:00.498Z,36.72
2023-02-14T10:24:51.682Z,37.58
2023-02-14T10:27:39.558Z,41.25
2023-02-14T10:30:16.533Z,38.13
2023-02-14T10:32:51.381Z,36.55
2023-02-14T10:35:30.018Z,37.10
2023-02-14T10:38:11.041Z,35.33
2023-02-14T10:41:10.173Z,36.72
2023-02-14T10:43:42.744Z,37.78
2023-02-14T10:46:17.780Z,35.97
2023-02-14T10:48:59.327Z,37.03
2023-02-14T10:51:34.944Z,34.88
2023-02-14T10:54:25.821Z,35.55
2023-02-14T10:56:59.313Z,35.40
2023-02-14T10:59:30.042Z,34.38
2023-02-14T11:01:58.536Z,35.72
2023-02-14T11:04:25.232Z,35.63
2023-02-14T11:06:52.692Z,40.60
2023-02-14T11:09:20.027Z,36.97
2023-02-14T11:11:57.567Z,39.33
2023-02-14T11:14:35.747Z,34.92
2023-02-14T11:17:28.956Z,34.42
2023-02-14T11:19:58.129Z,33.78
2023-02-14T11:22:29.884Z,36.03
2023-02-14T11:25:07.225Z,33.42
2023-02-14T11:27:34.115Z,33.97
2023-02-14T11:30:02.186Z,34.67
2023-02-14T11:32:30.273Z,34.05
2023-02-14T11:35:01.348Z,34.13
2023-02-14T11:37:39.802Z,33.80
2023-02-14T11:40:07.205Z,33.95
2023-02-14T11:42:36.767Z,32.85
2023-02-14T11:45:05.215Z,35.13
2023-02-14T11:47:34.632Z,36.85
2023-02-14T11:50:10.605Z,37.25
2023-02-14T11:52:48.910Z,35.75
2023-02-14T11:55:27.414Z,35.50
2023-02-14T11:57:54.953Z,32.55
2023-02-14T12:00:22.955Z,36.65
2023-02-14T12:02:50.581Z,33.72
2023-02-14T12:05:31.156Z,35.10
2023-02-14T12:08:00.055Z,34.80
2023-02-14T12:10:31.776Z,34.55
2023-02-14T12:13:21.221Z,32.22
2023-02-14T12:15:47.683Z,34.60
2023-02-14T12:18:36.804Z,32.90
2023-02-14T12:21:36.604Z,32.30
2023-02-14T12:24:29.399Z,33.78
2023-02-14T12:27:31.263Z,33.42
2023-02-14T12:30:16.652Z,32.97
2023-02-14T12:32:54.240Z,33.97
2023-02-14T12:35:47.645Z,34.17
2023-02-14T12:38:29.041Z,34.80
2023-02-14T12:41:07.598Z,33.80
2023-02-14T12:43:45.456Z,28.88
2023-02-14T12:46:39.456Z,32.08
2023-02-14T12:49:12.075Z,33.03
2023-02-14T12:51:47.354Z,31.52
2023-02-14T12:54:48.110Z,28.88
2023-02-14T12:57:23.776Z,30.08
2023-02-14T13:00:17.561Z,30.60
2023-02-14T13:02:58.686Z,31.55
2023-02-14T13:05:46.976Z,30.40
2023-02-14T13:08:36.751Z,29.30
2023-02-14T13:11:21.542Z,31.00
2023-02-14T13:14:03.642Z,28.98
2023-02-14T13:16:40.340Z,30.20
2023-02-14T13:19:20.743Z,29.40
2023-02-14T13:21:49.329Z,29.15
2023-02-14T13:24:23.022Z,26.90
2023-02-14T13:26:55.387Z,27.38
2023-02-14T13:29:24.036Z,28.73
2023-02-14T13:31:51.987Z,28.10
2023-02-14T13:34:28.192Z,28.55
2023-02-14T13:36:57.456Z,29.33
2023-02-14T13:39:38.725Z,28.30
2023-02-14T13:42:06.648Z,29.58
2023-02-14T13:44:42.905Z,28.20
2023-02-14T13:47:20.316Z,25.33
2023-02-14T13:49:51.796Z,25.50
2023-02-14T13:52:46.815Z,28.05
2023-02-14T13:55:18.438Z,28.13
2023-02-14T13:57:45.332Z,28.30
2023-02-14T14:00:17.884Z,28.02
2023-02-14T14:02:46.806Z,25.75
2023-02-14T14:05:47.604Z,27.35
2023-02-14T14:08:20.307Z,26.67
2023-02-14T14:10:48.344Z,27.95
2023-02-14T14:13:39.883Z,25.40
2023-02-14T14:16:27.443Z,26.23
2023-02-14T14:18:55.529Z,24.65
2023-02-14T14:21:37.724Z,25.75
2023-02-14T14:24:22.758Z,28.20
2023-02-14T14:27:12.209Z,27.63
2023-02-14T14:29:51.470Z,28.73
2023-02-14T14:32:21.481Z,29.40
2023-02-14T14:34:52.295Z,30.80
2023-02-14T14:37:21.726Z,30.48
2023-02-14T14:39:56.713Z,30.60
2023-02-14T14:42:25.809Z,31.25
2023-02-14T14:45:00.229Z,28.75
2023-02-14T14:47:29.285Z,34.80
2023-02-14T14:50:00.372Z,30.77
2023-02-14T14:52:32.518Z,31.25
2023-02-14T14:54:59.898Z,33.33
2023-02-14T14:57:26.879Z,33.42
2023-02-14T15:00:24.381Z,32.35
2023-02-14T15:03:03.268Z,33.63
2023-02-14T15:05:41.368Z,31.58
2023-02-14T15:08:13.940Z,31.77
2023-02-14T15:10:40.738Z,32.25
2023-02-14T15:13:30.589Z,33.13
2023-02-14T15:15:57.413Z,31.35
2023-02-14T15:18:24.612Z,32.50
2023-02-14T15:20:52.020Z,36.97
2023-02-14T15:23:20.651Z,34.72
2023-02-14T15:25:51.945Z,34.40
2023-02-14T15:28:28.673Z,38.58
2023-02-14T15:30:57.584Z,34.88
2023-02-14T15:33:24.640Z,35.03
2023-02-14T15:35:51.318Z,30.85
2023-02-14T15:38:18.434Z,32.83
2023-02-14T15:40:45.119Z,34.03
2023-02-14T15:43:16.157Z,35.00
2023-02-14T15:45:45.023Z,32.85
2023-02-14T15:48:17.846Z,36.05
2023-02-14T15:50:50.516Z,37.78
2023-02-14T15:53:17.298Z,32.58
2023-02-14T15:55:44.598Z,32.80
2023-02-14T15:58:20.529Z,33.95
2023-02-14T16:00:47.907Z,32.67
2023-02-14T16:03:20.456Z,33.13
2023-02-14T16:05:48.264Z,32.30
2023-02-14T16:08:36.130Z,33.78
2023-02-14T16:11:13.631Z,32.28
2023-02-14T16:13:45.450Z,31.15
2023-02-14T16:16:14.527Z,33.72
2023-02-14T16:18:45.150Z,34.80
2023-02-14T16:21:31.282Z,33.97
2023-02-14T16:24:17.289Z,32.50
2023-02-14T16:26:44.547Z,32.42
2023-02-14T16:29:13.104Z,33.35
2023-02-14T16:32:06.124Z,34.10
2023-02-14T16:34:30.262Z,33.85
2023-02-14T16:36:56.761Z,34.08
2023-02-14T16:39:25.050Z,41.67
2023-02-14T16:41:53.648Z,43.60
2023-02-14T16:44:20.514Z,39.63
2023-02-14T16:46:46.997Z,42.67
2023-02-14T16:49:14.168Z,38.65
2023-02-14T16:51:45.483Z,41.17
2023-02-14T16:54:19.003Z,45.33
2023-02-14T16:56:49.053Z,49.03
2023-02-14T16:59:15.647Z,66.78
2023-02-14T17:01:42.302Z,61.30
2023-02-14T17:04:08.901Z,44.65
2023-02-14T17:06:37.675Z,42.42
2023-02-14T17:09:09.840Z,41.75
2023-02-14T17:11:41.258Z,49.72
2023-02-14T17:14:08.460Z,44.35
2023-02-14T17:16:35.135Z,44.17
2023-02-14T17:19:02.511Z,44.60
2023-02-14T17:21:29.432Z,48.85
2023-02-14T17:23:57.277Z,48.58
2023-02-14T17:26:24.180Z,46.00
2023-02-14T17:28:50.901Z,48.70
2023-02-14T17:31:18.008Z,46.53
2023-02-14T17:33:44.603Z,48.58
2023-02-14T17:36:13.722Z,53.40
2023-02-14T17:38:43.388Z,64.43
2023-02-14T17:43:37.842Z,59.13
2023-02-14T17:46:05.488Z,57.33
2023-02-14T17:48:32.082Z,57.22
2023-02-14T17:51:03.978Z,49.55
2023-02-14T17:53:30.724Z,47.65
2023-02-14T17:55:58.068Z,49.08
2023-02-14T17:58:24.602Z,44.08
2023-02-14T18:00:51.175Z,46.25
2023-02-14T18:03:17.833Z,51.88
2023-02-14T18:05:44.407Z,49.55
2023-02-14T18:08:10.943Z,50.30
2023-02-14T18:10:37.798Z,51.05
2023-02-14T18:13:04.366Z,48.60
2023-02-14T18:15:33.675Z,48.20
2023-02-14T18:18:00.280Z,51.50
2023-02-14T18:20:26.831Z,51.05
2023-02-14T18:22:53.485Z,50.35
2023-02-14T18:25:20.007Z,54.17
2023-02-14T18:27:46.528Z,55.70
2023-02-14T18:30:16.407Z,59.85
2023-02-14T18:32:42.972Z,61.92
2023-02-14T18:35:12.276Z,62.10
2023-02-14T18:37:38.826Z,58.42
2023-02-14T18:40:05.950Z,54.40
2023-02-14T18:42:32.649Z,60.08
2023-02-14T18:44:59.220Z,57.75
2023-02-14T18:47:25.856Z,63.40
2023-02-14T18:49:52.554Z,60.47
2023-02-14T18:52:19.085Z,62.30
2023-02-14T18:54:45.681Z,64.68
2023-02-14T18:57:12.260Z,61.20
2023-02-14T18:59:39.282Z,68.63
2023-02-14T19:02:06.331Z,65.30
2023-02-14T19:04:33.061Z,65.82
2023-02-14T19:06:59.853Z,66.13
2023-02-14T19:09:28.211Z,67.43
2023-02-14T19:11:59.962Z,69.93
2023-02-14T19:14:26.938Z,76.93
2023-02-14T19:16:55.412Z,74.00
2023-02-14T19:19:23.227Z,81.57
2023-02-14T19:21:50.736Z,71.60
2023-02-14T19:24:18.829Z,76.25
2023-02-14T19:26:46.393Z,66.38
2023-02-14T19:29:39.387Z,72.43
2023-02-14T19:32:09.562Z,70.07
2023-02-14T19:37:03.898Z,70.20
2023-02-14T19:39:31.564Z,70.10
2023-02-14T19:41:59.156Z,70.40
2023-02-14T19:44:26.011Z,91.00
2023-02-14T19:46:56.779Z,91.60
2023-02-14T19:49:24.868Z,127.25
2023-02-14T19:51:51.573Z,181.18
2023-02-14T19:54:18.960Z,131.77
2023-02-14T19:56:55.521Z,107.35
2023-02-14T19:59:39.097Z,124.03
2023-02-14T20:02:25.608Z,117.70
2023-02-14T20:05:07.418Z,213.00
2023-02-14T20:07:40.642Z,147.80
2023-02-14T20:10:38.196Z,123.68
2023-02-14T20:13:12.307Z,84.38
2023-02-14T20:21:37.135Z,102.88
2023-02-14T20:24:14.581Z,108.28
2023-02-14T20:26:44.340Z,99.18
2023-02-14T20:29:11.798Z,115.78
2023-02-14T20:31:47.054Z,143.15
2023-02-14T20:34:17.065Z,156.10
2023-02-14T20:37:01.332Z,175.95
2023-02-14T20:42:12.006Z,80.35
2023-02-14T20:44:47.743Z,123.68
2023-02-14T20:47:30.662Z,127.50
2023-02-14T20:50:02.730Z,92.97
2023-02-14T20:52:33.362Z,63.20
2023-02-14T20:55:04.830Z,104.93
2023-02-14T20:57:39.463Z,58.35
2023-02-14T21:00:14.419Z,54.03
2023-02-14T21:02:45.847Z,66.47
2023-02-14T21:05:20.667Z,57.00
2023-02-14T21:07:50.934Z,64.53
2023-02-14T21:10:21.632Z,77.53
2023-02-14T21:13:10.859Z,58.70
2023-02-14T21:15:37.808Z,63.67
2023-02-14T21:18:04.820Z,54.75
2023-02-14T21:20:34.669Z,56.03
2023-02-14T21:23:03.039Z,71.80
2023-02-14T21:25:32.986Z,63.47
2023-02-14T21:28:01.131Z,61.90
2023-02-14T21:30:33.274Z,52.58
2023-02-14T21:33:00.246Z,65.22
2023-02-14T21:35:26.919Z,53.35
2023-02-14T21:37:53.540Z,59.13
2023-02-14T21:40:20.349Z,54.28
2023-02-14T21:42:46.936Z,48.17
2023-02-14T21:45:32.105Z,45.97
2023-02-14T21:48:17.919Z,95.78
2023-02-14T21:50:44.646Z,64.22
2023-02-14T21:53:11.284Z,63.90
2023-02-14T21:55:38.537Z,62.78
2023-02-14T21:58:05.141Z,49.08
